sensor_id;sensor_type;location;lat;lon;timestamp;P1;durP1;ratioP1;P2;durP2;ratioP2
10201;SDS011;5143;42.584;23.164;2023-04-08T00:00:03;16.47;;;10.10;;
10201;SDS011;5143;42.584;23.164;2023-04-08T00:02:33;12.00;;;8.13;;
10201;SDS011;5143;42.584;23.164;2023-04-08T00:05:00;11.57;;;8.27;;
10201;SDS011;5143;42.584;23.164;2023-04-08T00:07:27;13.13;;;9.63;;
10201;SDS011;5143;42.584;23.164;2023-04-08T00:09:54;12.27;;;8.83;;
10201;SDS011;5143;42.584;23.164;2023-04-08T00:12:21;14.13;;;9.57;;
10201;SDS011;5143;42.584;23.164;2023-04-08T00:14:47;18.67;;;11.93;;
10201;SDS011;5143;42.584;23.164;2023-04-08T00:17:14;16.43;;;11.43;;
10201;SDS011;5143;42.584;23.164;2023-04-08T00:19:43;16.50;;;11.17;;
10201;SDS011;5143;42.584;23.164;2023-04-08T00:22:10;20.97;;;14.20;;
10201;SDS011;5143;42.584;23.164;2023-04-08T00:24:37;29.83;;;19.13;;
10201;SDS011;5143;42.584;23.164;2023-04-08T00:27:04;32.70;;;20.90;;
10201;SDS011;5143;42.584;23.164;2023-04-08T00:29:31;28.10;;;18.93;;
10201;SDS011;5143;42.584;23.164;2023-04-08T00:31:58;26.53;;;18.03;;
10201;SDS011;5143;42.584;23.164;2023-04-08T00:34:25;27.70;;;17.23;;
10201;SDS011;5143;42.584;23.164;2023-04-08T00:36:54;20.70;;;15.13;;
10201;SDS011;5143;42.584;23.164;2023-04-08T00:39:20;20.37;;;14.23;;
10201;SDS011;5143;42.584;23.164;2023-04-08T00:41:47;19.33;;;13.03;;
10201;SDS011;5143;42.584;23.164;2023-04-08T00:44:14;12.47;;;8.43;;
10201;SDS011;5143;42.584;23.164;2023-04-08T00:46:41;13.33;;;9.40;;
10201;SDS011;5143;42.584;23.164;2023-04-08T00:49:09;10.73;;;8.03;;
10201;SDS011;5143;42.584;23.164;2023-04-08T00:51:36;10.40;;;7.37;;
10201;SDS011;5143;42.584;23.164;2023-04-08T00:54:05;11.23;;;7.80;;
10201;SDS011;5143;42.584;23.164;2023-04-08T00:56:32;16.53;;;10.70;;
10201;SDS011;5143;42.584;23.164;2023-04-08T00:59:00;19.57;;;11.43;;
10201;SDS011;5143;42.584;23.164;2023-04-08T01:01:32;12.40;;;8.20;;
10201;SDS011;5143;42.584;23.164;2023-04-08T01:04:06;12.40;;;8.43;;
10201;SDS011;5143;42.584;23.164;2023-04-08T01:06:39;12.70;;;8.37;;
10201;SDS011;5143;42.584;23.164;2023-04-08T01:09:16;12.67;;;9.10;;
10201;SDS011;5143;42.584;23.164;2023-04-08T01:11:44;8.83;;;6.30;;
10201;SDS011;5143;42.584;23.164;2023-04-08T01:14:15;8.63;;;6.33;;
10201;SDS011;5143;42.584;23.164;2023-04-08T01:16:45;8.90;;;6.47;;
10201;SDS011;5143;42.584;23.164;2023-04-08T01:19:15;8.20;;;6.13;;
10201;SDS011;5143;42.584;23.164;2023-04-08T01:21:47;14.10;;;8.40;;
10201;SDS011;5143;42.584;23.164;2023-04-08T01:24:18;12.63;;;8.57;;
10201;SDS011;5143;42.584;23.164;2023-04-08T01:26:52;10.17;;;7.17;;
10201;SDS011;5143;42.584;23.164;2023-04-08T01:29:20;8.33;;;5.93;;
10201;SDS011;5143;42.584;23.164;2023-04-08T01:31:48;8.83;;;6.20;;
10201;SDS011;5143;42.584;23.164;2023-04-08T01:34:17;7.53;;;6.33;;
10201;SDS011;5143;42.584;23.164;2023-04-08T01:36:46;7.37;;;6.10;;
10201;SDS011;5143;42.584;23.164;2023-04-08T01:39:14;10.07;;;6.43;;
10201;SDS011;5143;42.584;23.164;2023-04-08T01:41:43;9.37;;;6.87;;
10201;SDS011;5143;42.584;23.164;2023-04-08T01:44:13;9.03;;;5.80;;
10201;SDS011;5143;42.584;23.164;2023-04-08T01:46:42;7.73;;;5.97;;
10201;SDS011;5143;42.584;23.164;2023-04-08T01:49:09;7.80;;;5.30;;
10201;SDS011;5143;42.584;23.164;2023-04-08T01:51:37;7.17;;;4.87;;
10201;SDS011;5143;42.584;23.164;2023-04-08T01:54:07;7.87;;;5.70;;
10201;SDS011;5143;42.584;23.164;2023-04-08T01:56:35;8.20;;;6.00;;
10201;SDS011;5143;42.584;23.164;2023-04-08T01:59:05;8.33;;;6.27;;
10201;SDS011;5143;42.584;23.164;2023-04-08T02:01:37;7.23;;;5.43;;
10201;SDS011;5143;42.584;23.164;2023-04-08T02:04:04;7.30;;;5.10;;
10201;SDS011;5143;42.584;23.164;2023-04-08T02:06:32;8.27;;;4.87;;
10201;SDS011;5143;42.584;23.164;2023-04-08T02:09:00;8.10;;;5.57;;
10201;SDS011;5143;42.584;23.164;2023-04-08T02:11:27;8.87;;;5.87;;
10201;SDS011;5143;42.584;23.164;2023-04-08T02:13:53;7.80;;;6.17;;
10201;SDS011;5143;42.584;23.164;2023-04-08T02:16:22;9.47;;;6.63;;
10201;SDS011;5143;42.584;23.164;2023-04-08T02:18:57;10.57;;;6.90;;
10201;SDS011;5143;42.584;23.164;2023-04-08T02:21:29;8.23;;;6.43;;
10201;SDS011;5143;42.584;23.164;2023-04-08T02:23:59;8.43;;;6.80;;
10201;SDS011;5143;42.584;23.164;2023-04-08T02:26:31;8.97;;;7.13;;
10201;SDS011;5143;42.584;23.164;2023-04-08T02:28:59;10.53;;;7.13;;
10201;SDS011;5143;42.584;23.164;2023-04-08T02:31:28;9.30;;;6.60;;
10201;SDS011;5143;42.584;23.164;2023-04-08T02:33:56;7.60;;;6.10;;
10201;SDS011;5143;42.584;23.164;2023-04-08T02:36:24;7.80;;;5.87;;
10201;SDS011;5143;42.584;23.164;2023-04-08T02:38:52;7.63;;;5.93;;
10201;SDS011;5143;42.584;23.164;2023-04-08T02:41:19;9.50;;;5.93;;
10201;SDS011;5143;42.584;23.164;2023-04-08T02:43:46;8.33;;;6.60;;
10201;SDS011;5143;42.584;23.164;2023-04-08T02:46:13;10.60;;;6.80;;
10201;SDS011;5143;42.584;23.164;2023-04-08T02:48:40;8.73;;;7.27;;
10201;SDS011;5143;42.584;23.164;2023-04-08T02:51:08;9.77;;;7.20;;
10201;SDS011;5143;42.584;23.164;2023-04-08T02:53:35;10.10;;;7.13;;
10201;SDS011;5143;42.584;23.164;2023-04-08T02:56:02;9.00;;;6.57;;
10201;SDS011;5143;42.584;23.164;2023-04-08T02:58:30;9.23;;;6.63;;
10201;SDS011;5143;42.584;23.164;2023-04-08T03:00:57;11.97;;;7.10;;
10201;SDS011;5143;42.584;23.164;2023-04-08T03:03:24;11.43;;;7.13;;
10201;SDS011;5143;42.584;23.164;2023-04-08T03:05:53;16.13;;;10.47;;
10201;SDS011;5143;42.584;23.164;2023-04-08T03:08:22;24.50;;;15.57;;
10201;SDS011;5143;42.584;23.164;2023-04-08T03:10:50;11.10;;;8.17;;
10201;SDS011;5143;42.584;23.164;2023-04-08T03:13:16;9.50;;;7.40;;
10201;SDS011;5143;42.584;23.164;2023-04-08T03:15:44;9.57;;;7.30;;
10201;SDS011;5143;42.584;23.164;2023-04-08T03:18:11;9.20;;;7.07;;
10201;SDS011;5143;42.584;23.164;2023-04-08T03:20:38;11.40;;;8.37;;
10201;SDS011;5143;42.584;23.164;2023-04-08T03:23:05;13.27;;;8.57;;
10201;SDS011;5143;42.584;23.164;2023-04-08T03:25:34;11.23;;;7.83;;
10201;SDS011;5143;42.584;23.164;2023-04-08T03:28:01;14.87;;;8.80;;
10201;SDS011;5143;42.584;23.164;2023-04-08T03:30:27;11.40;;;8.17;;
10201;SDS011;5143;42.584;23.164;2023-04-08T03:32:54;13.03;;;8.90;;
10201;SDS011;5143;42.584;23.164;2023-04-08T03:35:21;13.70;;;9.30;;
10201;SDS011;5143;42.584;23.164;2023-04-08T03:37:48;10.10;;;8.30;;
10201;SDS011;5143;42.584;23.164;2023-04-08T03:40:15;11.43;;;9.07;;
10201;SDS011;5143;42.584;23.164;2023-04-08T03:42:43;11.97;;;7.40;;
10201;SDS011;5143;42.584;23.164;2023-04-08T03:45:10;17.50;;;8.57;;
10201;SDS011;5143;42.584;23.164;2023-04-08T03:47:38;11.23;;;8.80;;
10201;SDS011;5143;42.584;23.164;2023-04-08T03:50:05;10.03;;;7.20;;
10201;SDS011;5143;42.584;23.164;2023-04-08T03:52:33;11.20;;;8.33;;
10201;SDS011;5143;42.584;23.164;2023-04-08T03:55:00;16.50;;;9.03;;
10201;SDS011;5143;42.584;23.164;2023-04-08T03:57:27;14.80;;;8.87;;
10201;SDS011;5143;42.584;23.164;2023-04-08T03:59:55;11.10;;;6.90;;
10201;SDS011;5143;42.584;23.164;2023-04-08T04:02:22;9.43;;;6.93;;
10201;SDS011;5143;42.584;23.164;2023-04-08T04:04:49;8.47;;;6.73;;
10201;SDS011;5143;42.584;23.164;2023-04-08T04:07:16;8.83;;;6.10;;
10201;SDS011;5143;42.584;23.164;2023-04-08T04:09:43;6.10;;;5.27;;
10201;SDS011;5143;42.584;23.164;2023-04-08T04:12:10;6.60;;;5.63;;
10201;SDS011;5143;42.584;23.164;2023-04-08T04:14:36;7.57;;;6.30;;
10201;SDS011;5143;42.584;23.164;2023-04-08T04:17:05;12.37;;;7.60;;
10201;SDS011;5143;42.584;23.164;2023-04-08T04:19:31;11.63;;;8.23;;
10201;SDS011;5143;42.584;23.164;2023-04-08T04:21:59;11.77;;;7.70;;
10201;SDS011;5143;42.584;23.164;2023-04-08T04:24:25;9.97;;;7.83;;
10201;SDS011;5143;42.584;23.164;2023-04-08T04:26:52;11.90;;;8.80;;
10201;SDS011;5143;42.584;23.164;2023-04-08T04:29:20;13.77;;;8.47;;
10201;SDS011;5143;42.584;23.164;2023-04-08T04:31:47;8.40;;;5.93;;
10201;SDS011;5143;42.584;23.164;2023-04-08T04:34:15;8.00;;;6.23;;
10201;SDS011;5143;42.584;23.164;2023-04-08T04:36:42;8.27;;;5.90;;
10201;SDS011;5143;42.584;23.164;2023-04-08T04:39:09;8.83;;;6.63;;
10201;SDS011;5143;42.584;23.164;2023-04-08T04:41:36;8.07;;;6.20;;
10201;SDS011;5143;42.584;23.164;2023-04-08T04:44:04;8.57;;;6.47;;
10201;SDS011;5143;42.584;23.164;2023-04-08T04:46:31;8.17;;;5.80;;
10201;SDS011;5143;42.584;23.164;2023-04-08T04:48:58;11.83;;;6.87;;
10201;SDS011;5143;42.584;23.164;2023-04-08T04:51:26;15.57;;;9.33;;
10201;SDS011;5143;42.584;23.164;2023-04-08T04:53:53;13.73;;;9.73;;
10201;SDS011;5143;42.584;23.164;2023-04-08T04:56:20;18.90;;;12.17;;
10201;SDS011;5143;42.584;23.164;2023-04-08T04:58:47;18.10;;;13.17;;
10201;SDS011;5143;42.584;23.164;2023-04-08T05:01:14;24.10;;;15.10;;
10201;SDS011;5143;42.584;23.164;2023-04-08T05:03:41;22.83;;;14.70;;
10201;SDS011;5143;42.584;23.164;2023-04-08T05:06:08;32.90;;;17.73;;
10201;SDS011;5143;42.584;23.164;2023-04-08T05:08:36;27.37;;;15.73;;
10201;SDS011;5143;42.584;23.164;2023-04-08T05:11:03;26.97;;;15.70;;
10201;SDS011;5143;42.584;23.164;2023-04-08T05:13:34;26.53;;;15.60;;
10201;SDS011;5143;42.584;23.164;2023-04-08T05:16:01;32.23;;;16.57;;
10201;SDS011;5143;42.584;23.164;2023-04-08T05:18:28;21.07;;;13.20;;
10201;SDS011;5143;42.584;23.164;2023-04-08T05:20:55;18.30;;;12.00;;
10201;SDS011;5143;42.584;23.164;2023-04-08T05:23:22;19.87;;;13.97;;
10201;SDS011;5143;42.584;23.164;2023-04-08T05:25:50;19.07;;;13.00;;
10201;SDS011;5143;42.584;23.164;2023-04-08T05:28:16;19.20;;;11.80;;
10201;SDS011;5143;42.584;23.164;2023-04-08T05:30:47;16.47;;;10.87;;
10201;SDS011;5143;42.584;23.164;2023-04-08T05:33:14;14.33;;;10.57;;
10201;SDS011;5143;42.584;23.164;2023-04-08T05:35:41;11.90;;;8.30;;
10201;SDS011;5143;42.584;23.164;2023-04-08T05:38:08;12.30;;;8.50;;
10201;SDS011;5143;42.584;23.164;2023-04-08T05:40:35;12.07;;;8.83;;
10201;SDS011;5143;42.584;23.164;2023-04-08T05:43:04;16.13;;;10.47;;
10201;SDS011;5143;42.584;23.164;2023-04-08T05:45:31;18.33;;;12.00;;
10201;SDS011;5143;42.584;23.164;2023-04-08T05:47:58;21.17;;;14.17;;
10201;SDS011;5143;42.584;23.164;2023-04-08T05:50:24;15.53;;;10.70;;
10201;SDS011;5143;42.584;23.164;2023-04-08T05:52:51;16.37;;;10.93;;
10201;SDS011;5143;42.584;23.164;2023-04-08T05:55:19;32.70;;;19.40;;
10201;SDS011;5143;42.584;23.164;2023-04-08T05:57:46;36.53;;;21.83;;
10201;SDS011;5143;42.584;23.164;2023-04-08T06:00:14;26.13;;;15.77;;
10201;SDS011;5143;42.584;23.164;2023-04-08T06:02:42;26.60;;;14.80;;
10201;SDS011;5143;42.584;23.164;2023-04-08T06:05:09;19.53;;;12.10;;
10201;SDS011;5143;42.584;23.164;2023-04-08T06:07:35;20.80;;;12.40;;
10201;SDS011;5143;42.584;23.164;2023-04-08T06:10:02;12.23;;;9.27;;
10201;SDS011;5143;42.584;23.164;2023-04-08T06:12:34;14.43;;;9.00;;
10201;SDS011;5143;42.584;23.164;2023-04-08T06:15:02;14.80;;;10.00;;
10201;SDS011;5143;42.584;23.164;2023-04-08T06:17:31;13.23;;;9.07;;
10201;SDS011;5143;42.584;23.164;2023-04-08T06:19:59;12.20;;;9.60;;
10201;SDS011;5143;42.584;23.164;2023-04-08T06:22:26;10.77;;;7.73;;
10201;SDS011;5143;42.584;23.164;2023-04-08T06:24:56;10.00;;;8.47;;
10201;SDS011;5143;42.584;23.164;2023-04-08T06:27:23;11.93;;;8.77;;
10201;SDS011;5143;42.584;23.164;2023-04-08T06:29:50;11.27;;;7.23;;
10201;SDS011;5143;42.584;23.164;2023-04-08T06:32:17;8.53;;;6.80;;
10201;SDS011;5143;42.584;23.164;2023-04-08T06:34:46;10.17;;;6.77;;
10201;SDS011;5143;42.584;23.164;2023-04-08T06:37:13;10.93;;;6.00;;
10201;SDS011;5143;42.584;23.164;2023-04-08T06:39:40;9.27;;;6.20;;
10201;SDS011;5143;42.584;23.164;2023-04-08T06:42:07;9.13;;;5.73;;
10201;SDS011;5143;42.584;23.164;2023-04-08T06:44:33;7.63;;;5.67;;
10201;SDS011;5143;42.584;23.164;2023-04-08T06:47:00;6.97;;;5.90;;
10201;SDS011;5143;42.584;23.164;2023-04-08T06:49:27;8.13;;;5.90;;
10201;SDS011;5143;42.584;23.164;2023-04-08T06:51:55;9.13;;;5.80;;
10201;SDS011;5143;42.584;23.164;2023-04-08T06:54:23;6.47;;;5.13;;
10201;SDS011;5143;42.584;23.164;2023-04-08T06:56:50;9.57;;;5.60;;
10201;SDS011;5143;42.584;23.164;2023-04-08T06:59:16;9.07;;;5.83;;
10201;SDS011;5143;42.584;23.164;2023-04-08T07:01:43;10.63;;;6.20;;
10201;SDS011;5143;42.584;23.164;2023-04-08T07:04:10;13.00;;;7.50;;
10201;SDS011;5143;42.584;23.164;2023-04-08T07:06:38;9.87;;;6.50;;
10201;SDS011;5143;42.584;23.164;2023-04-08T07:09:06;17.47;;;7.63;;
10201;SDS011;5143;42.584;23.164;2023-04-08T07:11:33;12.23;;;7.07;;
10201;SDS011;5143;42.584;23.164;2023-04-08T07:14:00;7.80;;;5.57;;
10201;SDS011;5143;42.584;23.164;2023-04-08T07:16:27;10.50;;;5.53;;
10201;SDS011;5143;42.584;23.164;2023-04-08T07:18:54;7.27;;;5.93;;
10201;SDS011;5143;42.584;23.164;2023-04-08T07:21:22;6.50;;;5.53;;
10201;SDS011;5143;42.584;23.164;2023-04-08T07:23:49;8.73;;;5.07;;
10201;SDS011;5143;42.584;23.164;2023-04-08T07:26:18;8.23;;;5.07;;
10201;SDS011;5143;42.584;23.164;2023-04-08T07:28:46;5.83;;;4.47;;
10201;SDS011;5143;42.584;23.164;2023-04-08T07:31:13;6.30;;;4.97;;
10201;SDS011;5143;42.584;23.164;2023-04-08T07:33:42;7.23;;;4.80;;
10201;SDS011;5143;42.584;23.164;2023-04-08T07:36:11;9.17;;;5.00;;
10201;SDS011;5143;42.584;23.164;2023-04-08T07:38:39;8.53;;;5.07;;
10201;SDS011;5143;42.584;23.164;2023-04-08T07:41:06;6.93;;;5.13;;
10201;SDS011;5143;42.584;23.164;2023-04-08T07:43:35;7.43;;;5.33;;
10201;SDS011;5143;42.584;23.164;2023-04-08T07:46:02;8.33;;;5.17;;
10201;SDS011;5143;42.584;23.164;2023-04-08T07:48:29;8.77;;;6.07;;
10201;SDS011;5143;42.584;23.164;2023-04-08T07:50:58;8.90;;;5.47;;
10201;SDS011;5143;42.584;23.164;2023-04-08T07:53:28;7.23;;;5.23;;
10201;SDS011;5143;42.584;23.164;2023-04-08T07:55:55;14.33;;;6.30;;
10201;SDS011;5143;42.584;23.164;2023-04-08T07:58:22;7.43;;;5.47;;
10201;SDS011;5143;42.584;23.164;2023-04-08T08:00:51;11.47;;;5.90;;
10201;SDS011;5143;42.584;23.164;2023-04-08T08:03:18;8.30;;;6.17;;
10201;SDS011;5143;42.584;23.164;2023-04-08T08:05:45;11.03;;;6.30;;
10201;SDS011;5143;42.584;23.164;2023-04-08T08:08:13;8.47;;;6.10;;
10201;SDS011;5143;42.584;23.164;2023-04-08T08:10:40;9.30;;;5.63;;
10201;SDS011;5143;42.584;23.164;2023-04-08T08:13:07;7.33;;;5.50;;
10201;SDS011;5143;42.584;23.164;2023-04-08T08:15:34;9.80;;;5.50;;
10201;SDS011;5143;42.584;23.164;2023-04-08T08:18:02;8.23;;;5.53;;
10201;SDS011;5143;42.584;23.164;2023-04-08T08:20:30;7.70;;;6.20;;
10201;SDS011;5143;42.584;23.164;2023-04-08T08:22:57;7.67;;;6.20;;
10201;SDS011;5143;42.584;23.164;2023-04-08T08:25:23;7.33;;;5.77;;
10201;SDS011;5143;42.584;23.164;2023-04-08T08:27:50;11.83;;;7.67;;
10201;SDS011;5143;42.584;23.164;2023-04-08T08:30:17;13.93;;;9.00;;
10201;SDS011;5143;42.584;23.164;2023-04-08T08:32:45;9.87;;;7.23;;
10201;SDS011;5143;42.584;23.164;2023-04-08T08:35:14;9.73;;;7.17;;
10201;SDS011;5143;42.584;23.164;2023-04-08T08:37:40;8.67;;;6.57;;
10201;SDS011;5143;42.584;23.164;2023-04-08T08:40:08;12.20;;;7.30;;
10201;SDS011;5143;42.584;23.164;2023-04-08T08:42:36;9.40;;;6.63;;
10201;SDS011;5143;42.584;23.164;2023-04-08T08:45:04;9.33;;;6.93;;
10201;SDS011;5143;42.584;23.164;2023-04-08T08:47:32;10.73;;;7.03;;
10201;SDS011;5143;42.584;23.164;2023-04-08T08:49:59;10.93;;;7.23;;
10201;SDS011;5143;42.584;23.164;2023-04-08T08:52:27;9.33;;;7.00;;
10201;SDS011;5143;42.584;23.164;2023-04-08T08:54:56;11.53;;;8.13;;
10201;SDS011;5143;42.584;23.164;2023-04-08T08:57:24;10.57;;;7.90;;
10201;SDS011;5143;42.584;23.164;2023-04-08T08:59:51;12.30;;;7.40;;
10201;SDS011;5143;42.584;23.164;2023-04-08T09:02:24;8.43;;;6.80;;
10201;SDS011;5143;42.584;23.164;2023-04-08T09:04:56;15.90;;;7.87;;
10201;SDS011;5143;42.584;23.164;2023-04-08T09:07:25;12.73;;;7.43;;
10201;SDS011;5143;42.584;23.164;2023-04-08T09:09:54;9.97;;;7.10;;
10201;SDS011;5143;42.584;23.164;2023-04-08T09:12:23;8.67;;;6.23;;
10201;SDS011;5143;42.584;23.164;2023-04-08T09:15:00;9.23;;;6.57;;
10201;SDS011;5143;42.584;23.164;2023-04-08T09:17:31;11.27;;;6.53;;
10201;SDS011;5143;42.584;23.164;2023-04-08T09:20:03;11.50;;;6.43;;
10201;SDS011;5143;42.584;23.164;2023-04-08T09:22:34;6.80;;;5.17;;
10201;SDS011;5143;42.584;23.164;2023-04-08T09:25:08;6.47;;;4.70;;
10201;SDS011;5143;42.584;23.164;2023-04-08T09:27:48;6.80;;;4.93;;
10201;SDS011;5143;42.584;23.164;2023-04-08T09:30:16;9.47;;;5.70;;
10201;SDS011;5143;42.584;23.164;2023-04-08T09:32:46;10.30;;;6.27;;
10201;SDS011;5143;42.584;23.164;2023-04-08T09:35:13;11.73;;;5.53;;
10201;SDS011;5143;42.584;23.164;2023-04-08T09:37:41;9.40;;;4.87;;
10201;SDS011;5143;42.584;23.164;2023-04-08T09:40:12;9.20;;;4.50;;
10201;SDS011;5143;42.584;23.164;2023-04-08T09:42:43;8.77;;;4.20;;
10201;SDS011;5143;42.584;23.164;2023-04-08T09:45:13;8.47;;;4.23;;
10201;SDS011;5143;42.584;23.164;2023-04-08T09:47:43;4.13;;;3.53;;
10201;SDS011;5143;42.584;23.164;2023-04-08T09:50:18;6.23;;;3.80;;
10201;SDS011;5143;42.584;23.164;2023-04-08T09:52:48;6.50;;;3.83;;
10201;SDS011;5143;42.584;23.164;2023-04-08T09:55:23;4.87;;;4.07;;
10201;SDS011;5143;42.584;23.164;2023-04-08T09:57:57;8.47;;;4.40;;
10201;SDS011;5143;42.584;23.164;2023-04-08T10:00:28;7.40;;;4.70;;
10201;SDS011;5143;42.584;23.164;2023-04-08T10:03:00;5.50;;;4.20;;
10201;SDS011;5143;42.584;23.164;2023-04-08T10:05:35;5.47;;;3.93;;
10201;SDS011;5143;42.584;23.164;2023-04-08T10:08:04;6.43;;;4.90;;
10201;SDS011;5143;42.584;23.164;2023-04-08T10:10:33;6.17;;;4.10;;
10201;SDS011;5143;42.584;23.164;2023-04-08T10:13:01;10.87;;;5.80;;
10201;SDS011;5143;42.584;23.164;2023-04-08T10:15:29;7.40;;;4.47;;
10201;SDS011;5143;42.584;23.164;2023-04-08T10:21:00;6.30;;;3.40;;
10201;SDS011;5143;42.584;23.164;2023-04-08T10:26:31;13.10;;;9.63;;
10201;SDS011;5143;42.584;23.164;2023-04-08T10:32:06;8.50;;;4.77;;
10201;SDS011;5143;42.584;23.164;2023-04-08T10:34:33;5.90;;;4.43;;
10201;SDS011;5143;42.584;23.164;2023-04-08T10:37:00;5.77;;;4.20;;
10201;SDS011;5143;42.584;23.164;2023-04-08T10:39:27;6.77;;;4.67;;
10201;SDS011;5143;42.584;23.164;2023-04-08T10:41:57;16.10;;;5.27;;
10201;SDS011;5143;42.584;23.164;2023-04-08T10:44:27;4.77;;;3.80;;
10201;SDS011;5143;42.584;23.164;2023-04-08T10:46:54;5.70;;;4.00;;
10201;SDS011;5143;42.584;23.164;2023-04-08T10:49:22;7.90;;;5.50;;
10201;SDS011;5143;42.584;23.164;2023-04-08T10:51:58;7.77;;;6.97;;
10201;SDS011;5143;42.584;23.164;2023-04-08T10:54:26;5.23;;;4.40;;
10201;SDS011;5143;42.584;23.164;2023-04-08T10:56:53;8.73;;;4.70;;
10201;SDS011;5143;42.584;23.164;2023-04-08T10:59:27;6.97;;;3.13;;
10201;SDS011;5143;42.584;23.164;2023-04-08T11:01:54;5.23;;;4.17;;
10201;SDS011;5143;42.584;23.164;2023-04-08T11:04:22;7.80;;;6.17;;
10201;SDS011;5143;42.584;23.164;2023-04-08T11:06:51;6.47;;;4.07;;
10201;SDS011;5143;42.584;23.164;2023-04-08T11:09:18;6.40;;;4.70;;
10201;SDS011;5143;42.584;23.164;2023-04-08T11:11:45;6.43;;;4.70;;
10201;SDS011;5143;42.584;23.164;2023-04-08T11:14:12;8.80;;;5.50;;
10201;SDS011;5143;42.584;23.164;2023-04-08T11:16:42;5.37;;;4.30;;
10201;SDS011;5143;42.584;23.164;2023-04-08T11:19:10;6.20;;;5.33;;
10201;SDS011;5143;42.584;23.164;2023-04-08T11:21:39;4.47;;;3.73;;
10201;SDS011;5143;42.584;23.164;2023-04-08T11:24:07;8.60;;;7.73;;
10201;SDS011;5143;42.584;23.164;2023-04-08T11:26:36;5.70;;;4.47;;
10201;SDS011;5143;42.584;23.164;2023-04-08T11:29:04;14.83;;;11.50;;
10201;SDS011;5143;42.584;23.164;2023-04-08T11:31:31;4.83;;;4.37;;
10201;SDS011;5143;42.584;23.164;2023-04-08T11:34:00;5.47;;;4.93;;
10201;SDS011;5143;42.584;23.164;2023-04-08T11:36:27;8.03;;;4.80;;
10201;SDS011;5143;42.584;23.164;2023-04-08T11:38:54;33.13;;;18.33;;
10201;SDS011;5143;42.584;23.164;2023-04-08T11:41:21;10.03;;;5.77;;
10201;SDS011;5143;42.584;23.164;2023-04-08T11:43:51;31.50;;;14.60;;
10201;SDS011;5143;42.584;23.164;2023-04-08T11:46:20;7.87;;;5.47;;
10201;SDS011;5143;42.584;23.164;2023-04-08T11:48:56;10.40;;;9.30;;
10201;SDS011;5143;42.584;23.164;2023-04-08T11:51:29;6.20;;;3.73;;
10201;SDS011;5143;42.584;23.164;2023-04-08T11:53:55;3.77;;;3.00;;
10201;SDS011;5143;42.584;23.164;2023-04-08T11:56:23;8.70;;;6.30;;
10201;SDS011;5143;42.584;23.164;2023-04-08T11:58:50;7.80;;;4.37;;
10201;SDS011;5143;42.584;23.164;2023-04-08T12:01:18;3.60;;;3.00;;
10201;SDS011;5143;42.584;23.164;2023-04-08T12:03:52;4.97;;;3.73;;
10201;SDS011;5143;42.584;23.164;2023-04-08T12:06:22;6.50;;;4.93;;
10201;SDS011;5143;42.584;23.164;2023-04-08T12:08:48;6.93;;;4.47;;
10201;SDS011;5143;42.584;23.164;2023-04-08T12:11:15;10.30;;;4.47;;
10201;SDS011;5143;42.584;23.164;2023-04-08T12:13:42;5.10;;;3.60;;
10201;SDS011;5143;42.584;23.164;2023-04-08T12:16:09;6.17;;;4.30;;
10201;SDS011;5143;42.584;23.164;2023-04-08T12:18:36;5.17;;;3.70;;
10201;SDS011;5143;42.584;23.164;2023-04-08T12:21:04;6.97;;;4.43;;
10201;SDS011;5143;42.584;23.164;2023-04-08T12:23:32;5.27;;;4.60;;
10201;SDS011;5143;42.584;23.164;2023-04-08T12:25:59;9.67;;;5.53;;
10201;SDS011;5143;42.584;23.164;2023-04-08T12:28:26;5.43;;;4.63;;
10201;SDS011;5143;42.584;23.164;2023-04-08T12:30:53;5.53;;;3.57;;
10201;SDS011;5143;42.584;23.164;2023-04-08T12:33:20;5.10;;;3.80;;
10201;SDS011;5143;42.584;23.164;2023-04-08T12:35:47;10.13;;;5.27;;
10201;SDS011;5143;42.584;23.164;2023-04-08T12:38:13;10.77;;;6.13;;
10201;SDS011;5143;42.584;23.164;2023-04-08T12:40:42;11.27;;;5.33;;
10201;SDS011;5143;42.584;23.164;2023-04-08T12:43:09;9.57;;;3.83;;
10201;SDS011;5143;42.584;23.164;2023-04-08T12:45:36;10.43;;;4.20;;
10201;SDS011;5143;42.584;23.164;2023-04-08T12:48:03;6.37;;;4.23;;
10201;SDS011;5143;42.584;23.164;2023-04-08T12:50:30;5.17;;;4.10;;
10201;SDS011;5143;42.584;23.164;2023-04-08T12:52:57;4.83;;;3.27;;
10201;SDS011;5143;42.584;23.164;2023-04-08T12:55:23;5.67;;;3.50;;
10201;SDS011;5143;42.584;23.164;2023-04-08T12:57:52;4.17;;;3.10;;
10201;SDS011;5143;42.584;23.164;2023-04-08T13:00:18;5.17;;;3.83;;
10201;SDS011;5143;42.584;23.164;2023-04-08T13:02:45;8.93;;;3.63;;
10201;SDS011;5143;42.584;23.164;2023-04-08T13:05:12;6.07;;;2.77;;
10201;SDS011;5143;42.584;23.164;2023-04-08T13:07:39;4.93;;;3.20;;
10201;SDS011;5143;42.584;23.164;2023-04-08T13:10:07;7.77;;;2.87;;
10201;SDS011;5143;42.584;23.164;2023-04-08T13:12:34;4.47;;;3.73;;
10201;SDS011;5143;42.584;23.164;2023-04-08T13:15:06;7.13;;;3.30;;
10201;SDS011;5143;42.584;23.164;2023-04-08T13:17:34;11.50;;;3.33;;
10201;SDS011;5143;42.584;23.164;2023-04-08T13:20:00;6.47;;;3.00;;
10201;SDS011;5143;42.584;23.164;2023-04-08T13:22:33;4.20;;;2.60;;
10201;SDS011;5143;42.584;23.164;2023-04-08T13:25:07;11.13;;;8.03;;
10201;SDS011;5143;42.584;23.164;2023-04-08T13:27:34;3.60;;;2.90;;
10201;SDS011;5143;42.584;23.164;2023-04-08T13:30:08;3.93;;;2.90;;
10201;SDS011;5143;42.584;23.164;2023-04-08T13:32:37;5.73;;;2.60;;
10201;SDS011;5143;42.584;23.164;2023-04-08T13:35:12;6.47;;;3.83;;
10201;SDS011;5143;42.584;23.164;2023-04-08T13:37:58;4.53;;;3.07;;
10201;SDS011;5143;42.584;23.164;2023-04-08T13:40:36;3.67;;;2.60;;
10201;SDS011;5143;42.584;23.164;2023-04-08T13:43:04;12.30;;;4.77;;
10201;SDS011;5143;42.584;23.164;2023-04-08T13:45:33;7.80;;;3.50;;
10201;SDS011;5143;42.584;23.164;2023-04-08T13:48:01;4.67;;;3.37;;
10201;SDS011;5143;42.584;23.164;2023-04-08T13:50:28;4.80;;;4.10;;
10201;SDS011;5143;42.584;23.164;2023-04-08T13:52:55;8.47;;;6.00;;
10201;SDS011;5143;42.584;23.164;2023-04-08T13:55:22;10.87;;;7.00;;
10201;SDS011;5143;42.584;23.164;2023-04-08T13:57:49;13.13;;;5.90;;
10201;SDS011;5143;42.584;23.164;2023-04-08T14:00:16;9.23;;;6.07;;
10201;SDS011;5143;42.584;23.164;2023-04-08T14:02:44;8.13;;;5.73;;
10201;SDS011;5143;42.584;23.164;2023-04-08T14:05:11;11.30;;;5.87;;
10201;SDS011;5143;42.584;23.164;2023-04-08T14:07:40;7.80;;;5.53;;
10201;SDS011;5143;42.584;23.164;2023-04-08T14:10:07;6.90;;;4.87;;
10201;SDS011;5143;42.584;23.164;2023-04-08T14:12:35;8.77;;;4.97;;
10201;SDS011;5143;42.584;23.164;2023-04-08T14:15:02;8.47;;;4.53;;
10201;SDS011;5143;42.584;23.164;2023-04-08T14:17:29;5.33;;;4.77;;
10201;SDS011;5143;42.584;23.164;2023-04-08T14:19:59;7.63;;;4.57;;
10201;SDS011;5143;42.584;23.164;2023-04-08T14:22:26;6.13;;;4.47;;
10201;SDS011;5143;42.584;23.164;2023-04-08T14:24:53;6.13;;;4.53;;
10201;SDS011;5143;42.584;23.164;2023-04-08T14:27:20;6.27;;;4.70;;
10201;SDS011;5143;42.584;23.164;2023-04-08T14:29:46;12.23;;;5.07;;
10201;SDS011;5143;42.584;23.164;2023-04-08T14:32:13;9.10;;;5.30;;
10201;SDS011;5143;42.584;23.164;2023-04-08T14:34:41;7.80;;;5.03;;
10201;SDS011;5143;42.584;23.164;2023-04-08T14:37:10;6.43;;;5.10;;
10201;SDS011;5143;42.584;23.164;2023-04-08T14:39:37;5.80;;;4.93;;
10201;SDS011;5143;42.584;23.164;2023-04-08T14:42:04;8.93;;;5.30;;
10201;SDS011;5143;42.584;23.164;2023-04-08T14:44:30;9.57;;;6.20;;
10201;SDS011;5143;42.584;23.164;2023-04-08T14:46:58;7.03;;;5.13;;
10201;SDS011;5143;42.584;23.164;2023-04-08T14:49:24;6.40;;;4.60;;
10201;SDS011;5143;42.584;23.164;2023-04-08T14:51:51;5.67;;;4.60;;
10201;SDS011;5143;42.584;23.164;2023-04-08T14:54:20;8.43;;;5.03;;